sensor_id;sensor_type;location;lat;lon;timestamp;temperature;humidity
4103;DHT22;2065;49.790;9.620;2022-11-06T00:00:17;11.80;58.00
4103;DHT22;2065;49.790;9.620;2022-11-06T00:02:46;11.80;57.90
4103;DHT22;2065;49.790;9.620;2022-11-06T00:05:14;11.80;57.90
4103;DHT22;2065;49.790;9.620;2022-11-06T00:07:58;11.50;58.30
4103;DHT22;2065;49.790;9.620;2022-11-06T00:10:28;11.20;59.60
4103;DHT22;2065;49.790;9.620;2022-11-06T00:12:55;11.10;59.60
4103;DHT22;2065;49.790;9.620;2022-11-06T00:15:22;10.80;60.30
4103;DHT22;2065;49.790;9.620;2022-11-06T00:17:50;10.90;60.80
4103;DHT22;2065;49.790;9.620;2022-11-06T00:20:17;11.20;60.80
4103;DHT22;2065;49.790;9.620;2022-11-06T00:22:45;11.40;60.10
4103;DHT22;2065;49.790;9.620;2022-11-06T00:25:12;11.40;59.20
4103;DHT22;2065;49.790;9.620;2022-11-06T00:27:39;11.60;59.10
4103;DHT22;2065;49.790;9.620;2022-11-06T00:30:09;11.60;58.70
4103;DHT22;2065;49.790;9.620;2022-11-06T00:32:37;11.70;58.30
4103;DHT22;2065;49.790;9.620;2022-11-06T00:35:07;11.70;58.10
4103;DHT22;2065;49.790;9.620;2022-11-06T00:37:34;11.70;58.80
4103;DHT22;2065;49.790;9.620;2022-11-06T00:40:01;11.60;58.90
4103;DHT22;2065;49.790;9.620;2022-11-06T00:42:29;11.40;58.80
4103;DHT22;2065;49.790;9.620;2022-11-06T00:44:56;11.20;59.70
4103;DHT22;2065;49.790;9.620;2022-11-06T00:47:23;11.40;59.30
4103;DHT22;2065;49.790;9.620;2022-11-06T00:49:50;11.40;58.40
4103;DHT22;2065;49.790;9.620;2022-11-06T00:52:19;11.50;58.10
4103;DHT22;2065;49.790;9.620;2022-11-06T00:54:46;11.50;57.90
4103;DHT22;2065;49.790;9.620;2022-11-06T00:57:13;11.50;57.80
4103;DHT22;2065;49.790;9.620;2022-11-06T00:59:40;11.50;58.00
4103;DHT22;2065;49.790;9.620;2022-11-06T01:02:07;11.50;58.10
4103;DHT22;2065;49.790;9.620;2022-11-06T01:04:34;11.50;58.40
4103;DHT22;2065;49.790;9.620;2022-11-06T01:07:01;11.50;58.50
4103;DHT22;2065;49.790;9.620;2022-11-06T01:09:29;11.60;58.90
4103;DHT22;2065;49.790;9.620;2022-11-06T01:11:58;11.60;59.00
4103;DHT22;2065;49.790;9.620;2022-11-06T01:14:25;11.60;59.00
4103;DHT22;2065;49.790;9.620;2022-11-06T01:16:53;11.60;59.10
4103;DHT22;2065;49.790;9.620;2022-11-06T01:19:20;11.60;59.30
4103;DHT22;2065;49.790;9.620;2022-11-06T01:21:49;11.60;59.30
4103;DHT22;2065;49.790;9.620;2022-11-06T01:24:19;11.60;58.90
4103;DHT22;2065;49.790;9.620;2022-11-06T01:26:48;11.10;59.00
4103;DHT22;2065;49.790;9.620;2022-11-06T01:29:17;10.60;60.60
4103;DHT22;2065;49.790;9.620;2022-11-06T01:31:45;10.60;61.00
4103;DHT22;2065;49.790;9.620;2022-11-06T01:34:14;10.70;60.90
4103;DHT22;2065;49.790;9.620;2022-11-06T01:36:41;10.90;59.60
4103;DHT22;2065;49.790;9.620;2022-11-06T01:39:12;11.00;59.10
4103;DHT22;2065;49.790;9.620;2022-11-06T01:41:43;11.00;58.30
4103;DHT22;2065;49.790;9.620;2022-11-06T01:47:21;11.10;57.70
4103;DHT22;2065;49.790;9.620;2022-11-06T01:49:50;10.90;57.90
4103;DHT22;2065;49.790;9.620;2022-11-06T01:52:18;11.00;57.90
4103;DHT22;2065;49.790;9.620;2022-11-06T01:54:50;11.00;57.70
4103;DHT22;2065;49.790;9.620;2022-11-06T01:57:18;10.80;58.10
4103;DHT22;2065;49.790;9.620;2022-11-06T01:59:46;10.70;58.70
4103;DHT22;2065;49.790;9.620;2022-11-06T02:02:15;10.70;59.00
4103;DHT22;2065;49.790;9.620;2022-11-06T02:04:45;10.80;59.00
4103;DHT22;2065;49.790;9.620;2022-11-06T02:07:13;10.90;58.50
4103;DHT22;2065;49.790;9.620;2022-11-06T02:09:41;10.80;57.90
4103;DHT22;2065;49.790;9.620;2022-11-06T02:12:14;10.80;58.30
4103;DHT22;2065;49.790;9.620;2022-11-06T02:14:53;10.90;58.40
4103;DHT22;2065;49.790;9.620;2022-11-06T02:17:30;10.90;58.20
4103;DHT22;2065;49.790;9.620;2022-11-06T02:20:06;11.00;58.10
4103;DHT22;2065;49.790;9.620;2022-11-06T02:22:47;10.80;58.00
4103;DHT22;2065;49.790;9.620;2022-11-06T02:25:26;10.80;58.40
4103;DHT22;2065;49.790;9.620;2022-11-06T02:27:59;10.80;58.60
4103;DHT22;2065;49.790;9.620;2022-11-06T02:30:31;10.80;59.20
4103;DHT22;2065;49.790;9.620;2022-11-06T02:33:02;10.70;59.30
4103;DHT22;2065;49.790;9.620;2022-11-06T02:35:35;10.70;59.80
4103;DHT22;2065;49.790;9.620;2022-11-06T02:38:07;10.40;59.40
4103;DHT22;2065;49.790;9.620;2022-11-06T02:40:38;9.90;61.70
4103;DHT22;2065;49.790;9.620;2022-11-06T02:43:08;10.10;60.80
4103;DHT22;2065;49.790;9.620;2022-11-06T02:45:41;10.10;60.00
4103;DHT22;2065;49.790;9.620;2022-11-06T02:48:11;10.30;59.50
4103;DHT22;2065;49.790;9.620;2022-11-06T02:50:42;10.50;59.60
4103;DHT22;2065;49.790;9.620;2022-11-06T02:53:13;10.60;59.20
4103;DHT22;2065;49.790;9.620;2022-11-06T02:55:45;10.60;58.50
4103;DHT22;2065;49.790;9.620;2022-11-06T02:58:18;10.60;58.40
4103;DHT22;2065;49.790;9.620;2022-11-06T03:00:49;10.60;58.30
4103;DHT22;2065;49.790;9.620;2022-11-06T03:03:22;10.50;58.10
4103;DHT22;2065;49.790;9.620;2022-11-06T03:05:55;10.20;57.40
4103;DHT22;2065;49.790;9.620;2022-11-06T03:08:27;9.60;59.30
4103;DHT22;2065;49.790;9.620;2022-11-06T03:11:04;9.30;60.80
4103;DHT22;2065;49.790;9.620;2022-11-06T03:13:43;9.60;60.70
4103;DHT22;2065;49.790;9.620;2022-11-06T03:16:22;9.80;59.80
4103;DHT22;2065;49.790;9.620;2022-11-06T03:19:01;9.90;59.10
4103;DHT22;2065;49.790;9.620;2022-11-06T03:21:35;10.00;58.20
4103;DHT22;2065;49.790;9.620;2022-11-06T03:24:12;10.10;58.40
4103;DHT22;2065;49.790;9.620;2022-11-06T03:26:43;10.10;58.70
4103;DHT22;2065;49.790;9.620;2022-11-06T03:29:17;10.20;58.50
4103;DHT22;2065;49.790;9.620;2022-11-06T03:31:49;10.30;58.30
4103;DHT22;2065;49.790;9.620;2022-11-06T03:34:24;10.20;57.90
4103;DHT22;2065;49.790;9.620;2022-11-06T03:36:58;10.20;58.40
4103;DHT22;2065;49.790;9.620;2022-11-06T03:39:30;9.90;59.70
4103;DHT22;2065;49.790;9.620;2022-11-06T03:42:02;10.00;59.30
4103;DHT22;2065;49.790;9.620;2022-11-06T03:44:37;10.10;59.00
4103;DHT22;2065;49.790;9.620;2022-11-06T03:47:10;10.10;59.10
4103;DHT22;2065;49.790;9.620;2022-11-06T03:49:41;10.10;59.80
4103;DHT22;2065;49.790;9.620;2022-11-06T03:52:12;10.00;59.40
4103;DHT22;2065;49.790;9.620;2022-11-06T03:54:44;9.60;60.80
4103;DHT22;2065;49.790;9.620;2022-11-06T03:57:16;9.30;61.50
4103;DHT22;2065;49.790;9.620;2022-11-06T03:59:50;8.90;62.60
4103;DHT22;2065;49.790;9.620;2022-11-06T04:02:19;9.20;62.80
4103;DHT22;2065;49.790;9.620;2022-11-06T04:04:51;9.30;63.00
4103;DHT22;2065;49.790;9.620;2022-11-06T04:07:22;9.40;63.50
4103;DHT22;2065;49.790;9.620;2022-11-06T04:09:52;9.30;63.00
4103;DHT22;2065;49.790;9.620;2022-11-06T04:12:39;9.10;63.50
4103;DHT22;2065;49.790;9.620;2022-11-06T04:15:30;9.10;63.40
4103;DHT22;2065;49.790;9.620;2022-11-06T04:17:58;9.00;63.80
4103;DHT22;2065;49.790;9.620;2022-11-06T04:20:30;8.80;63.10
4103;DHT22;2065;49.790;9.620;2022-11-06T04:23:26;8.90;63.80
4103;DHT22;2065;49.790;9.620;2022-11-06T04:26:01;9.30;63.20
4103;DHT22;2065;49.790;9.620;2022-11-06T04:28:55;9.60;62.50
4103;DHT22;2065;49.790;9.620;2022-11-06T04:31:30;9.30;62.40
4103;DHT22;2065;49.790;9.620;2022-11-06T04:34:03;9.00;63.20
4103;DHT22;2065;49.790;9.620;2022-11-06T04:36:41;8.80;63.40
4103;DHT22;2065;49.790;9.620;2022-11-06T04:39:13;9.10;63.60
4103;DHT22;2065;49.790;9.620;2022-11-06T04:41:50;9.30;63.00
4103;DHT22;2065;49.790;9.620;2022-11-06T04:44:25;9.60;61.80
4103;DHT22;2065;49.790;9.620;2022-11-06T04:46:58;9.60;61.80
4103;DHT22;2065;49.790;9.620;2022-11-06T04:49:27;9.40;62.30
4103;DHT22;2065;49.790;9.620;2022-11-06T04:51:55;9.40;62.40
4103;DHT22;2065;49.790;9.620;2022-11-06T04:54:23;9.30;62.30
4103;DHT22;2065;49.790;9.620;2022-11-06T04:56:56;9.50;62.20
4103;DHT22;2065;49.790;9.620;2022-11-06T04:59:24;9.70;62.00
4103;DHT22;2065;49.790;9.620;2022-11-06T05:01:52;9.80;61.50
4103;DHT22;2065;49.790;9.620;2022-11-06T05:04:20;9.60;60.80
4103;DHT22;2065;49.790;9.620;2022-11-06T05:06:47;9.50;61.10
4103;DHT22;2065;49.790;9.620;2022-11-06T05:09:14;9.20;61.50
4103;DHT22;2065;49.790;9.620;2022-11-06T05:11:41;8.90;62.20
4103;DHT22;2065;49.790;9.620;2022-11-06T05:14:08;8.80;62.60
4103;DHT22;2065;49.790;9.620;2022-11-06T05:16:36;8.90;61.70
4103;DHT22;2065;49.790;9.620;2022-11-06T05:19:03;8.90;62.10
4103;DHT22;2065;49.790;9.620;2022-11-06T05:21:31;8.70;61.90
4103;DHT22;2065;49.790;9.620;2022-11-06T05:24:15;8.50;63.20
4103;DHT22;2065;49.790;9.620;2022-11-06T05:26:42;8.60;63.50
4103;DHT22;2065;49.790;9.620;2022-11-06T05:29:10;8.60;64.20
4103;DHT22;2065;49.790;9.620;2022-11-06T05:31:37;8.80;63.90
4103;DHT22;2065;49.790;9.620;2022-11-06T05:34:04;9.10;63.60
4103;DHT22;2065;49.790;9.620;2022-11-06T05:36:33;9.20;61.80
4103;DHT22;2065;49.790;9.620;2022-11-06T05:39:00;9.00;61.70
4103;DHT22;2065;49.790;9.620;2022-11-06T05:41:27;9.00;62.10
4103;DHT22;2065;49.790;9.620;2022-11-06T05:43:54;9.10;61.50
4103;DHT22;2065;49.790;9.620;2022-11-06T05:46:21;8.80;62.00
4103;DHT22;2065;49.790;9.620;2022-11-06T05:48:48;8.70;62.70
4103;DHT22;2065;49.790;9.620;2022-11-06T05:51:15;8.70;62.60
4103;DHT22;2065;49.790;9.620;2022-11-06T05:53:43;8.60;63.00
4103;DHT22;2065;49.790;9.620;2022-11-06T05:56:10;8.70;63.00
4103;DHT22;2065;49.790;9.620;2022-11-06T05:58:38;8.60;62.30
4103;DHT22;2065;49.790;9.620;2022-11-06T06:01:05;8.30;62.60
4103;DHT22;2065;49.790;9.620;2022-11-06T06:03:32;8.30;63.70
4103;DHT22;2065;49.790;9.620;2022-11-06T06:05:59;8.40;63.00
4103;DHT22;2065;49.790;9.620;2022-11-06T06:08:26;8.30;63.40
4103;DHT22;2065;49.790;9.620;2022-11-06T06:10:54;8.30;63.20
4103;DHT22;2065;49.790;9.620;2022-11-06T06:13:21;8.30;63.20
4103;DHT22;2065;49.790;9.620;2022-11-06T06:15:48;8.10;63.00
4103;DHT22;2065;49.790;9.620;2022-11-06T06:18:15;8.10;63.80
4103;DHT22;2065;49.790;9.620;2022-11-06T06:20:42;8.20;64.10
4103;DHT22;2065;49.790;9.620;2022-11-06T06:23:09;8.30;63.50
4103;DHT22;2065;49.790;9.620;2022-11-06T06:25:36;8.40;63.20
4103;DHT22;2065;49.790;9.620;2022-11-06T06:28:05;8.70;62.20
4103;DHT22;2065;49.790;9.620;2022-11-06T06:30:32;8.70;61.10
4103;DHT22;2065;49.790;9.620;2022-11-06T06:33:03;8.60;61.90
4103;DHT22;2065;49.790;9.620;2022-11-06T06:35:31;8.80;61.80
4103;DHT22;2065;49.790;9.620;2022-11-06T06:37:58;8.80;61.80
4103;DHT22;2065;49.790;9.620;2022-11-06T06:40:25;8.70;61.70
4103;DHT22;2065;49.790;9.620;2022-11-06T06:42:55;8.70;61.30
4103;DHT22;2065;49.790;9.620;2022-11-06T06:45:24;8.50;61.70
4103;DHT22;2065;49.790;9.620;2022-11-06T06:47:52;8.50;62.30
4103;DHT22;2065;49.790;9.620;2022-11-06T06:50:20;8.40;62.50
4103;DHT22;2065;49.790;9.620;2022-11-06T06:52:47;8.50;62.60
4103;DHT22;2065;49.790;9.620;2022-11-06T06:55:14;8.40;63.00
4103;DHT22;2065;49.790;9.620;2022-11-06T06:57:42;8.50;63.00
4103;DHT22;2065;49.790;9.620;2022-11-06T07:00:10;8.30;63.10
4103;DHT22;2065;49.790;9.620;2022-11-06T07:02:38;8.50;63.40
4103;DHT22;2065;49.790;9.620;2022-11-06T07:05:06;8.60;62.50
4103;DHT22;2065;49.790;9.620;2022-11-06T07:07:35;8.70;62.50
4103;DHT22;2065;49.790;9.620;2022-11-06T07:10:03;8.60;61.30
4103;DHT22;2065;49.790;9.620;2022-11-06T07:12:30;8.60;62.30
4103;DHT22;2065;49.790;9.620;2022-11-06T07:14:57;8.90;62.00
4103;DHT22;2065;49.790;9.620;2022-11-06T07:17:24;9.00;61.20
4103;DHT22;2065;49.790;9.620;2022-11-06T07:19:52;9.10;60.80
4103;DHT22;2065;49.790;9.620;2022-11-06T07:22:19;9.20;60.60
4103;DHT22;2065;49.790;9.620;2022-11-06T07:24:46;9.30;60.20
4103;DHT22;2065;49.790;9.620;2022-11-06T07:27:13;9.40;60.00
4103;DHT22;2065;49.790;9.620;2022-11-06T07:29:41;9.40;59.40
4103;DHT22;2065;49.790;9.620;2022-11-06T07:32:08;9.50;59.30
4103;DHT22;2065;49.790;9.620;2022-11-06T07:34:35;9.60;58.50
4103;DHT22;2065;49.790;9.620;2022-11-06T07:37:05;9.50;58.60
4103;DHT22;2065;49.790;9.620;2022-11-06T07:39:33;9.50;58.90
4103;DHT22;2065;49.790;9.620;2022-11-06T07:42:00;9.50;59.00
4103;DHT22;2065;49.790;9.620;2022-11-06T07:44:34;9.00;59.40
4103;DHT22;2065;49.790;9.620;2022-11-06T07:47:01;8.80;60.20
4103;DHT22;2065;49.790;9.620;2022-11-06T07:49:28;8.60;60.30
4103;DHT22;2065;49.790;9.620;2022-11-06T07:51:55;8.40;61.50
4103;DHT22;2065;49.790;9.620;2022-11-06T07:54:24;8.50;61.70
4103;DHT22;2065;49.790;9.620;2022-11-06T07:56:51;8.80;61.50
4103;DHT22;2065;49.790;9.620;2022-11-06T07:59:18;8.70;61.00
4103;DHT22;2065;49.790;9.620;2022-11-06T08:01:46;8.50;61.30
4103;DHT22;2065;49.790;9.620;2022-11-06T08:04:13;8.80;61.50
4103;DHT22;2065;49.790;9.620;2022-11-06T08:06:40;8.50;61.60
4103;DHT22;2065;49.790;9.620;2022-11-06T08:09:07;8.60;62.50
4103;DHT22;2065;49.790;9.620;2022-11-06T08:11:36;9.00;62.50
4103;DHT22;2065;49.790;9.620;2022-11-06T08:14:03;9.20;61.80
4103;DHT22;2065;49.790;9.620;2022-11-06T08:16:30;9.30;61.30
4103;DHT22;2065;49.790;9.620;2022-11-06T08:18:58;9.40;60.00
4103;DHT22;2065;49.790;9.620;2022-11-06T08:21:25;9.10;61.30
4103;DHT22;2065;49.790;9.620;2022-11-06T08:23:52;9.30;61.60
4103;DHT22;2065;49.790;9.620;2022-11-06T08:26:19;9.30;62.00
4103;DHT22;2065;49.790;9.620;2022-11-06T08:28:47;9.50;61.50
4103;DHT22;2065;49.790;9.620;2022-11-06T08:31:14;9.80;61.00
4103;DHT22;2065;49.790;9.620;2022-11-06T08:33:41;9.90;60.40
4103;DHT22;2065;49.790;9.620;2022-11-06T08:36:09;9.60;59.80
4103;DHT22;2065;49.790;9.620;2022-11-06T08:38:36;9.60;60.70
4103;DHT22;2065;49.790;9.620;2022-11-06T08:41:04;9.80;61.00
4103;DHT22;2065;49.790;9.620;2022-11-06T08:43:32;9.90;61.10
4103;DHT22;2065;49.790;9.620;2022-11-06T08:46:01;9.50;61.50
4103;DHT22;2065;49.790;9.620;2022-11-06T08:48:28;9.60;62.80
4103;DHT22;2065;49.790;9.620;2022-11-06T08:50:55;9.50;62.40
4103;DHT22;2065;49.790;9.620;2022-11-06T08:53:23;9.30;63.50
4103;DHT22;2065;49.790;9.620;2022-11-06T08:55:50;9.30;62.90
4103;DHT22;2065;49.790;9.620;2022-11-06T08:58:17;9.20;63.30
4103;DHT22;2065;49.790;9.620;2022-11-06T09:00:44;9.10;64.20
4103;DHT22;2065;49.790;9.620;2022-11-06T09:03:14;9.40;64.00
4103;DHT22;2065;49.790;9.620;2022-11-06T09:05:43;9.50;63.00
4103;DHT22;2065;49.790;9.620;2022-11-06T09:08:11;9.30;62.80
4103;DHT22;2065;49.790;9.620;2022-11-06T09:10:40;9.20;63.50
4103;DHT22;2065;49.790;9.620;2022-11-06T09:13:07;9.50;63.70
4103;DHT22;2065;49.790;9.620;2022-11-06T09:15:35;9.50;63.30
4103;DHT22;2065;49.790;9.620;2022-11-06T09:18:02;9.70;63.60
4103;DHT22;2065;49.790;9.620;2022-11-06T09:20:30;10.00;61.60
4103;DHT22;2065;49.790;9.620;2022-11-06T09:22:59;9.80;62.60
4103;DHT22;2065;49.790;9.620;2022-11-06T09:25:28;9.60;63.40
4103;DHT22;2065;49.790;9.620;2022-11-06T09:27:55;9.60;64.60
4103;DHT22;2065;49.790;9.620;2022-11-06T09:30:23;9.70;63.80
4103;DHT22;2065;49.790;9.620;2022-11-06T09:32:53;9.60;64.30
4103;DHT22;2065;49.790;9.620;2022-11-06T09:35:22;9.60;65.00
4103;DHT22;2065;49.790;9.620;2022-11-06T09:37:51;9.70;64.40
4103;DHT22;2065;49.790;9.620;2022-11-06T09:40:20;9.60;64.40
4103;DHT22;2065;49.790;9.620;2022-11-06T09:42:55;9.50;65.20
4103;DHT22;2065;49.790;9.620;2022-11-06T09:45:29;9.70;65.40
4103;DHT22;2065;49.790;9.620;2022-11-06T09:47:59;9.60;64.70
4103;DHT22;2065;49.790;9.620;2022-11-06T09:50:30;9.40;65.60
4103;DHT22;2065;49.790;9.620;2022-11-06T09:53:04;9.50;65.80
4103;DHT22;2065;49.790;9.620;2022-11-06T09:55:37;9.40;65.10
4103;DHT22;2065;49.790;9.620;2022-11-06T09:58:10;9.60;64.90
4103;DHT22;2065;49.790;9.620;2022-11-06T10:00:39;9.80;65.20
4103;DHT22;2065;49.790;9.620;2022-11-06T10:03:12;9.90;64.60
4103;DHT22;2065;49.790;9.620;2022-11-06T10:05:42;10.00;62.30
4103;DHT22;2065;49.790;9.620;2022-11-06T10:08:15;10.00;63.60
4103;DHT22;2065;49.790;9.620;2022-11-06T10:10:50;9.80;63.90
4103;DHT22;2065;49.790;9.620;2022-11-06T10:13:40;9.40;65.30
4103;DHT22;2065;49.790;9.620;2022-11-06T10:16:16;9.50;65.20
4103;DHT22;2065;49.790;9.620;2022-11-06T10:18:55;9.50;65.70
4103;DHT22;2065;49.790;9.620;2022-11-06T10:21:31;9.70;65.70
4103;DHT22;2065;49.790;9.620;2022-11-06T10:24:06;10.20;63.70
4103;DHT22;2065;49.790;9.620;2022-11-06T10:26:46;10.20;62.80
4103;DHT22;2065;49.790;9.620;2022-11-06T10:29:37;10.40;62.60
4103;DHT22;2065;49.790;9.620;2022-11-06T10:32:26;10.30;62.40
4103;DHT22;2065;49.790;9.620;2022-11-06T10:35:00;10.30;62.50
4103;DHT22;2065;49.790;9.620;2022-11-06T10:37:33;10.40;63.20
4103;DHT22;2065;49.790;9.620;2022-11-06T10:40:08;10.70;62.10
4103;DHT22;2065;49.790;9.620;2022-11-06T10:42:40;10.70;62.50
4103;DHT22;2065;49.790;9.620;2022-11-06T10:45:11;10.90;61.50
4103;DHT22;2065;49.790;9.620;2022-11-06T10:47:44;10.50;62.20
4103;DHT22;2065;49.790;9.620;2022-11-06T10:50:14;10.50;62.70
4103;DHT22;2065;49.790;9.620;2022-11-06T10:52:49;10.50;63.30
4103;DHT22;2065;49.790;9.620;2022-11-06T10:55:54;10.90;62.60
4103;DHT22;2065;49.790;9.620;2022-11-06T10:58:26;11.10;61.60
4103;DHT22;2065;49.790;9.620;2022-11-06T11:01:04;11.30;61.40
4103;DHT22;2065;49.790;9.620;2022-11-06T11:03:34;11.40;61.40
4103;DHT22;2065;49.790;9.620;2022-11-06T11:06:02;11.20;61.60
4103;DHT22;2065;49.790;9.620;2022-11-06T11:08:34;11.20;61.80
4103;DHT22;2065;49.790;9.620;2022-11-06T11:11:05;11.00;61.50
4103;DHT22;2065;49.790;9.620;2022-11-06T11:13:33;11.00;62.30
4103;DHT22;2065;49.790;9.620;2022-11-06T11:16:01;10.90;62.30
4103;DHT22;2065;49.790;9.620;2022-11-06T11:18:29;10.70;63.10
4103;DHT22;2065;49.790;9.620;2022-11-06T11:21:22;10.70;63.70
4103;DHT22;2065;49.790;9.620;2022-11-06T11:24:05;10.80;64.00
4103;DHT22;2065;49.790;9.620;2022-11-06T11:26:37;10.70;64.40
4103;DHT22;2065;49.790;9.620;2022-11-06T11:29:12;11.00;64.50
4103;DHT22;2065;49.790;9.620;2022-11-06T11:31:45;11.10;63.20
4103;DHT22;2065;49.790;9.620;2022-11-06T11:34:16;11.30;63.70
4103;DHT22;2065;49.790;9.620;2022-11-06T11:36:54;11.50;62.90
4103;DHT22;2065;49.790;9.620;2022-11-06T11:39:26;11.60;62.40
4103;DHT22;2065;49.790;9.620;2022-11-06T11:42:15;11.60;63.00
4103;DHT22;2065;49.790;9.620;2022-11-06T11:44:43;11.50;63.10
4103;DHT22;2065;49.790;9.620;2022-11-06T11:47:19;11.30;64.30
4103;DHT22;2065;49.790;9.620;2022-11-06T11:49:47;11.30;64.20
4103;DHT22;2065;49.790;9.620;2022-11-06T11:52:18;11.20;64.80
4103;DHT22;2065;49.790;9.620;2022-11-06T11:54:49;11.60;64.30
4103;DHT22;2065;49.790;9.620;2022-11-06T11:57:20;11.90;63.60
4103;DHT22;2065;49.790;9.620;2022-11-06T11:59:50;12.10;62.80
4103;DHT22;2065;49.790;9.620;2022-11-06T12:02:21;12.10;63.40
4103;DHT22;2065;49.790;9.620;2022-11-06T12:04:53;12.10;62.90
4103;DHT22;2065;49.790;9.620;2022-11-06T12:07:25;12.30;62.80
4103;DHT22;2065;49.790;9.620;2022-11-06T12:09:53;12.20;62.60
4103;DHT22;2065;49.790;9.620;2022-11-06T12:12:24;12.20;63.30
4103;DHT22;2065;49.790;9.620;2022-11-06T12:15:05;12.30;63.10
4103;DHT22;2065;49.790;9.620;2022-11-06T12:17:35;12.50;62.30
4103;DHT22;2065;49.790;9.620;2022-11-06T12:20:11;12.70;61.60
4103;DHT22;2065;49.790;9.620;2022-11-06T12:22:43;12.80;61.80
4103;DHT22;2065;49.790;9.620;2022-11-06T12:25:15;12.60;61.20
4103;DHT22;2065;49.790;9.620;2022-11-06T12:27:46;12.30;62.10
4103;DHT22;2065;49.790;9.620;2022-11-06T12:30:16;12.50;62.80
4103;DHT22;2065;49.790;9.620;2022-11-06T12:32:57;12.80;62.00
4103;DHT22;2065;49.790;9.620;2022-11-06T12:35:28;12.80;62.30
4103;DHT22;2065;49.790;9.620;2022-11-06T12:38:03;13.10;62.00
4103;DHT22;2065;49.790;9.620;2022-11-06T12:40:34;13.50;60.90
4103;DHT22;2065;49.790;9.620;2022-11-06T12:43:12;13.40;60.20
4103;DHT22;2065;49.790;9.620;2022-11-06T12:46:02;13.50;60.20
4103;DHT22;2065;49.790;9.620;2022-11-06T12:48:45;13.90;60.10
4103;DHT22;2065;49.790;9.620;2022-11-06T12:51:20;14.00;58.80
4103;DHT22;2065;49.790;9.620;2022-11-06T12:54:00;13.80;59.40
4103;DHT22;2065;49.790;9.620;2022-11-06T12:56:37;13.80;59.80
4103;DHT22;2065;49.790;9.620;2022-11-06T12:59:18;14.10;59.90
4103;DHT22;2065;49.790;9.620;2022-11-06T13:01:54;14.50;59.20
4103;DHT22;2065;49.790;9.620;2022-11-06T13:04:35;14.70;58.40
4103;DHT22;2065;49.790;9.620;2022-11-06T13:07:25;14.50;57.90
4103;DHT22;2065;49.790;9.620;2022-11-06T13:12:50;15.00;57.90
4103;DHT22;2065;49.790;9.620;2022-11-06T13:15:26;15.10;57.60
4103;DHT22;2065;49.790;9.620;2022-11-06T13:17:58;15.20;57.40
4103;DHT22;2065;49.790;9.620;2022-11-06T13:20:32;15.30;57.20
4103;DHT22;2065;49.790;9.620;2022-11-06T13:23:05;14.90;57.60
4103;DHT22;2065;49.790;9.620;2022-11-06T13:25:37;14.80;58.00
4103;DHT22;2065;49.790;9.620;2022-11-06T13:28:23;14.70;58.40
4103;DHT22;2065;49.790;9.620;2022-11-06T13:30:56;14.50;59.10
4103;DHT22;2065;49.790;9.620;2022-11-06T13:33:26;14.50;59.00
4103;DHT22;2065;49.790;9.620;2022-11-06T13:35:54;14.60;58.50
4103;DHT22;2065;49.790;9.620;2022-11-06T13:38:24;14.60;57.40
4103;DHT22;2065;49.790;9.620;2022-11-06T13:40:55;14.50;57.30
4103;DHT22;2065;49.790;9.620;2022-11-06T13:43:27;14.20;57.80
4103;DHT22;2065;49.790;9.620;2022-11-06T13:46:09;14.10;57.60
4103;DHT22;2065;49.790;9.620;2022-11-06T13:48:44;13.90;58.40
4103;DHT22;2065;49.790;9.620;2022-11-06T13:51:20;13.80;58.20
4103;DHT22;2065;49.790;9.620;2022-11-06T13:53:56;13.90;58.10
4103;DHT22;2065;49.790;9.620;2022-11-06T13:56:46;13.90;58.20
4103;DHT22;2065;49.790;9.620;2022-11-06T13:59:36;14.10;57.60
4103;DHT22;2065;49.790;9.620;2022-11-06T14:02:19;14.10;56.90
4103;DHT22;2065;49.790;9.620;2022-11-06T14:05:23;13.90;57.30
4103;DHT22;2065;49.790;9.620;2022-11-06T14:07:57;13.90;57.30
4103;DHT22;2065;49.790;9.620;2022-11-06T14:10:29;13.70;57.70
4103;DHT22;2065;49.790;9.620;2022-11-06T14:12:59;13.60;57.50
4103;DHT22;2065;49.790;9.620;2022-11-06T14:15:30;13.70;57.00
4103;DHT22;2065;49.790;9.620;2022-11-06T14:18:02;13.60;57.00
4103;DHT22;2065;49.790;9.620;2022-11-06T14:20:32;13.30;57.50
4103;DHT22;2065;49.790;9.620;2022-11-06T14:23:44;13.30;57.90
4103;DHT22;2065;49.790;9.620;2022-11-06T14:26:12;13.10;58.20
4103;DHT22;2065;49.790;9.620;2022-11-06T14:28:40;13.30;58.20
4103;DHT22;2065;49.790;9.620;2022-11-06T14:31:08;13.20;57.80
4103;DHT22;2065;49.790;9.620;2022-11-06T14:33:59;13.00;57.80
4103;DHT22;2065;49.790;9.620;2022-11-06T14:36:30;13.10;58.10
4103;DHT22;2065;49.790;9.620;2022-11-06T14:38:58;13.20;58.00
4103;DHT22;2065;49.790;9.620;2022-11-06T14:41:51;13.30;57.60
4103;DHT22;2065;49.790;9.620;2022-11-06T14:44:26;13.20;57.90
4103;DHT22;2065;49.790;9.620;2022-11-06T14:46:56;13.40;58.30
4103;DHT22;2065;49.790;9.620;2022-11-06T14:49:32;13.40;57.10
4103;DHT22;2065;49.790;9.620;2022-11-06T14:52:03;13.20;57.80
4103;DHT22;2065;49.790;9.620;2022-11-06T14:54:34;13.10;58.20
4103;DHT22;2065;49.790;9.620;2022-11-06T14:57:02;13.10;58.30
4103;DHT22;2065;49.790;9.620;2022-11-06T14:59:33;13.00;58.60
4103;DHT22;2065;49.790;9.620;2022-11-06T15:02:06;12.90;58.90
4103;DHT22;2065;49.790;9.620;2022-11-06T15:04:43;13.00;58.60
4103;DHT22;2065;49.790;9.620;2022-11-06T15:07:26;13.00;58.70
4103;DHT22;2065;49.790;9.620;2022-11-06T15:09:58;12.80;59.10
4103;DHT22;2065;49.790;9.620;2022-11-06T15:15:25;13.00;59.10
4103;DHT22;2065;49.790;9.620;2022-11-06T15:17:53;13.10;59.10
4103;DHT22;2065;49.790;9.620;2022-11-06T15:20:26;13.10;58.70
4103;DHT22;2065;49.790;9.620;2022-11-06T15:23:03;13.00;59.00
4103;DHT22;2065;49.790;9.620;2022-11-06T15:25:32;12.90;59.10
4103;DHT22;2065;49.790;9.620;2022-11-06T15:28:04;12.90;59.80
4103;DHT22;2065;49.790;9.620;2022-11-06T15:30:40;12.90;59.20
4103;DHT22;2065;49.790;9.620;2022-11-06T15:33:13;12.70;59.50
4103;DHT22;2065;49.790;9.620;2022-11-06T15:35:45;12.60;59.80
4103;DHT22;2065;49.790;9.620;2022-11-06T15:38:16;12.50;60.20
4103;DHT22;2065;49.790;9.620;2022-11-06T15:40:46;12.50;60.40
4103;DHT22;2065;49.790;9.620;2022-11-06T15:43:27;12.50;60.10
4103;DHT22;2065;49.790;9.620;2022-11-06T15:46:06;12.50;60.10
4103;DHT22;2065;49.790;9.620;2022-11-06T15:48:33;12.30;59.60
4103;DHT22;2065;49.790;9.620;2022-11-06T15:51:03;12.30;59.90
4103;DHT22;2065;49.790;9.620;2022-11-06T15:53:32;12.10;59.80
4103;DHT22;2065;49.790;9.620;2022-11-06T15:56:01;12.10;60.20
4103;DHT22;2065;49.790;9.620;2022-11-06T15:58:30;11.90;59.80
4103;DHT22;2065;49.790;9.620;2022-11-06T16:00:58;12.00;60.90
4103;DHT22;2065;49.790;9.620;2022-11-06T16:03:27;12.20;59.50
4103;DHT22;2065;49.790;9.620;2022-11-06T16:05:56;12.50;58.90
4103;DHT22;2065;49.790;9.620;2022-11-06T16:08:26;12.50;58.20
4103;DHT22;2065;49.790;9.620;2022-11-06T16:10:54;12.40;58.10
4103;DHT22;2065;49.790;9.620;2022-11-06T16:13:23;12.50;57.50
4103;DHT22;2065;49.790;9.620;2022-11-06T16:15:53;12.60;57.60
4103;DHT22;2065;49.790;9.620;2022-11-06T16:18:24;12.80;56.40
4103;DHT22;2065;49.790;9.620;2022-11-06T16:20:55;12.30;56.90
4103;DHT22;2065;49.790;9.620;2022-11-06T16:23:30;12.50;57.40
4103;DHT22;2065;49.790;9.620;2022-11-06T16:26:00;12.60;57.40
4103;DHT22;2065;49.790;9.620;2022-11-06T16:28:31;12.40;56.80
4103;DHT22;2065;49.790;9.620;2022-11-06T16:31:14;12.40;57.00
4103;DHT22;2065;49.790;9.620;2022-11-06T16:33:52;12.60;56.80
4103;DHT22;2065;49.790;9.620;2022-11-06T16:36:20;12.70;56.80
4103;DHT22;2065;49.790;9.620;2022-11-06T16:38:48;12.90;56.80
4103;DHT22;2065;49.790;9.620;2022-11-06T16:41:17;12.90;56.70
4103;DHT22;2065;49.790;9.620;2022-11-06T16:44:21;12.90;56.70